INFORMACIÓN METAR y TAF
METAR FOR UHPP
ADDS - METARS form results

(0225 UTC 24 September 2021)
Data provider http://aviationweather.gov/metar/data/
 
METAR text: UHPP 240200Z 20005MPS 170V230 9999 SCT050 BKN130 14/06 Q1016 R34L/CLRD70 NOSIG RMK MT OBSC QFE758/1011
Conditions at: UHPP (PETROPAVLOVSK-KA, RU) observed 0200 UTC 24 September 2021
Temperature: 14.0°C (57°F)
Dewpoint: 6.0°C (43°F) [RH = 58%]
Pressure (altimeter): 30.00 inches Hg (1016.0 mb)
Winds: from the SSW (200 degrees) at 12 MPH (10 knots; 5.1 m/s)
Visibility: 6 or more miles (10+ km)
Ceiling: 13000 feet AGL
Clouds: scattered clouds at 5000 feet AGL
broken clouds at 13000 feet AGL
Weather: no significant weather observed at this time

METAR text: UHPP 240130Z 19005MPS 170V240 9999 SCT043 BKN130 14/06 Q1016 R34L/CLRD70 NOSIG RMK MT OBSC QFE758/1011
Conditions at: UHPP (PETROPAVLOVSK-KA, RU) observed 0130 UTC 24 September 2021
Temperature: 14.0°C (57°F)
Dewpoint: 6.0°C (43°F) [RH = 58%]
Pressure (altimeter): 30.00 inches Hg (1016.0 mb)
Winds: from the S (190 degrees) at 12 MPH (10 knots; 5.1 m/s)
Visibility: 6 or more miles (10+ km)
Ceiling: 13000 feet AGL
Clouds: scattered clouds at 4300 feet AGL
broken clouds at 13000 feet AGL
Weather: no significant weather observed at this time

Forecast for: UHPP (PETROPAVLOVSK-KA, RU)
Text: TAF UHPP 240154Z 2403/2509 18003G12MPS 9999 SCT040CB
Forecast period: 0300 UTC 24 September 2021 to 0900 UTC 25 September 2021
Forecast type: FROM: standard forecast or significant change
Winds: from the S (180 degrees) at 7 MPH (6 knots; 3.1 m/s)
gusting to 26 MPH (23 knots; 11.8 m/s)
Visibility: 6 or more miles (10+ km)
Ceiling: at least 12,000 feet AGL
Clouds: scattered clouds at 4000 feet AGL
Weather: no significant weather forecast for this period

 MAPA DE AEROPUERTO

 INFORMACIÓN DE PISTA
Pista 12 Longitud 735 ft Ancho 50 ft
Elevación 0 ft Umbral desplazado 0 ft Rumbo de pista 118
Pista 30 Longitud 735 ft Ancho 50 ft
Elevación 0 ft Umbral desplazado 0 ft Rumbo de pista 298
Pista 16L Longitud 11155 ft Ancho 197 ft
Elevación 112 ft Umbral desplazado 0 ft Rumbo de pista 157
Pista 34R Longitud 11155 ft Ancho 197 ft
Elevación 131 ft Umbral desplazado 0 ft Rumbo de pista 337
Pista 16R Longitud 8235 ft Ancho 197 ft
Elevación 0 ft Umbral desplazado 0 ft Rumbo de pista 157
Pista 34L Longitud 8235 ft Ancho 197 ft
Elevación 0 ft Umbral desplazado 0 ft Rumbo de pista 337

 FRECUANCIAS DEL AEROPUERTO
Tipo ARSA Nombre PETROPAVLO Frecuencia 119.4 MHZ
Tipo TWR Nombre PETROPAVLO Frecuencia 118.1 MHZ

 RADIO AYUDAS DEL AEROPUERTO
Tipo NDB Nombre Petropavlovsk-Kamchatsky Frecuencia 535 KHZ




Normativa | Spanair Virtual © 2021 |